Time;durP1;ratioP1;P1;durP2;ratioP2;P2;SDS_P1;SDS_P2;PMS_P1;PMS_P2;Temp;Humidity;BMP_temperature;BMP_pressure;BME280_temperature;BME280_humidity;BME280_pressure;Samples;Min_cycle;Max_cycle;Signal;HPM_P1;HPM_P2
2022/10/20 00:02:29;;;;;;;4.23;2.07;;;;;;;5.29;99.83;101841.44;5999638;28;20031;-66
2022/10/20 00:05:25;;;;;;;7.10;2.50;;;;;;;5.32;99.99;101842.13;5999431;28;20290;-66
2022/10/20 00:08:20;;;;;;;6.50;3.07;;;;;;;5.24;100.00;101835.59;6000053;28;20058;-67
2022/10/20 00:11:17;;;;;;;9.27;3.05;;;;;;;5.22;99.96;101835.66;5999008;28;20102;-66
2022/10/20 00:14:12;;;;;;;7.00;2.67;;;;;;;5.16;99.91;101827.28;5999593;28;20031;-66
2022/10/20 00:17:08;;;;;;;10.10;2.88;;;;;;;5.15;100.00;101836.94;5999520;28;20121;-66
2022/10/20 00:20:03;;;;;;;8.27;2.73;;;;;;;5.24;100.00;101830.34;5999061;28;20139;-66
2022/10/20 00:22:59;;;;;;;8.27;3.30;;;;;;;5.09;100.00;101818.00;5999562;28;20027;-66
2022/10/20 00:26:16;;;;;;;6.70;3.10;;;;;;;5.09;100.00;101807.50;5998618;28;20066;-66
2022/10/20 00:29:11;;;;;;;9.20;3.17;;;;;;;5.01;100.00;101796.56;5999541;28;20066;-66
2022/10/20 00:32:06;;;;;;;6.20;2.63;;;;;;;5.03;100.00;101789.47;5998268;28;20077;-66
2022/10/20 00:35:02;;;;;;;12.20;3.30;;;;;;;5.07;100.00;101801.47;5999315;28;20282;-66
2022/10/20 00:37:57;;;;;;;7.25;2.58;;;;;;;4.97;100.00;101790.63;5999166;28;20117;-66
2022/10/20 00:40:53;;;;;;;12.60;3.53;;;;;;;4.98;100.00;101791.47;5998083;28;20538;-66
2022/10/20 00:43:54;;;;;;;8.77;2.47;;;;;;;4.85;100.00;101777.31;5998890;28;20057;-66
2022/10/20 00:46:49;;;;;;;4.82;2.90;;;;;;;4.95;100.00;101787.22;5998507;28;20286;-66
2022/10/20 00:49:45;;;;;;;6.53;2.70;;;;;;;4.94;100.00;101774.19;5998850;28;20180;-66
2022/10/20 00:52:42;;;;;;;4.65;2.50;;;;;;;4.76;100.00;101766.34;5993645;28;20041;-66
2022/10/20 00:55:40;;;;;;;6.45;3.13;;;;;;;4.71;100.00;101755.25;5995378;28;20466;-67
2022/10/20 00:58:35;;;;;;;8.60;3.00;;;;;;;4.71;100.00;101738.63;5998192;28;20031;-66
2022/10/20 01:01:31;;;;;;;10.98;3.78;;;;;;;4.90;100.00;101735.84;5997660;28;20081;-66
2022/10/20 01:04:28;;;;;;;11.52;3.90;;;;;;;4.80;100.00;101730.25;5998525;28;20042;-66
2022/10/20 01:07:24;;;;;;;8.02;3.75;;;;;;;4.78;100.00;101732.97;5997905;28;20031;-66
2022/10/20 01:10:20;;;;;;;10.50;3.33;;;;;;;4.70;100.00;101708.06;5998183;28;20514;-65
2022/10/20 01:13:30;;;;;;;8.10;3.20;;;;;;;4.85;100.00;101724.75;5997661;28;20486;-66
2022/10/20 01:16:44;;;;;;;7.68;4.15;;;;;;;4.94;100.00;101734.75;5998912;28;20382;-66
2022/10/20 01:20:07;;;;;;;9.07;3.70;;;;;;;5.27;100.00;101736.31;5997269;28;20360;-66
2022/10/20 01:23:23;;;;;;;11.68;3.70;;;;;;;5.37;100.00;101728.78;5998155;28;20466;-67
2022/10/20 01:26:42;;;;;;;6.30;3.70;;;;;;;5.41;99.66;101722.38;5996791;28;20062;-66
2022/10/20 01:29:49;;;;;;;8.60;2.90;;;;;;;5.60;98.54;101733.53;5997364;28;20115;-65
2022/10/20 01:33:19;;;;;;;6.82;2.53;;;;;;;5.85;98.05;101723.31;5997348;28;20035;-65
2022/10/20 01:36:24;;;;;;;5.10;2.38;;;;;;;5.90;97.06;101715.97;5996266;28;20569;-66
2022/10/20 01:39:33;;;;;;;5.00;2.30;;;;;;;5.92;95.91;101710.66;6000753;28;20546;-66
2022/10/20 01:42:29;;;;;;;4.95;2.60;;;;;;;6.11;95.04;101723.56;6001114;28;20042;-66
2022/10/20 01:45:26;;;;;;;6.50;3.70;;;;;;;6.04;94.13;101706.41;6002477;28;20514;-65
2022/10/20 01:48:25;;;;;;;4.80;2.47;;;;;;;6.07;94.46;101707.09;6001735;28;20439;-65
2022/10/20 01:51:20;;;;;;;5.82;2.55;;;;;;;6.12;93.83;101709.41;6000503;28;20035;-65
2022/10/20 01:54:26;;;;;;;6.03;2.53;;;;;;;6.21;93.27;101708.88;6002123;28;20509;-65
2022/10/20 01:57:52;;;;;;;9.93;2.70;;;;;;;6.18;93.17;101703.78;6002047;28;20141;-66
2022/10/20 02:00:50;;;;;;;5.15;2.13;;;;;;;6.15;93.02;101690.81;6002330;28;20035;-66
2022/10/20 02:03:56;;;;;;;7.88;2.38;;;;;;;6.19;93.02;101697.59;6000757;28;20035;-65
2022/10/20 02:06:56;;;;;;;5.75;2.55;;;;;;;6.18;92.30;101693.25;6001340;28;20070;-65
2022/10/20 02:10:01;;;;;;;7.28;2.97;;;;;;;6.17;92.89;101710.03;6002067;28;20498;-66
2022/10/20 02:13:03;;;;;;;6.20;2.25;;;;;;;6.09;92.74;101693.84;6001678;28;20045;-66
2022/10/20 02:16:00;;;;;;;6.50;2.90;;;;;;;5.97;93.41;101683.13;6000504;28;20098;-66
2022/10/20 02:18:57;;;;;;;4.57;2.45;;;;;;;5.94;93.49;101666.66;6001005;28;20182;-66
2022/10/20 02:21:53;;;;;;;6.28;2.90;;;;;;;5.91;93.83;101662.41;6000644;28;20031;-66
2022/10/20 02:24:50;;;;;;;4.43;2.30;;;;;;;5.94;94.11;101672.75;6000451;28;20039;-67
2022/10/20 02:27:46;;;;;;;6.75;2.92;;;;;;;5.86;94.25;101672.38;6000542;28;20075;-66
2022/10/20 02:30:42;;;;;;;8.10;3.47;;;;;;;5.73;94.81;101665.28;6000786;28;20035;-66
2022/10/20 02:33:38;;;;;;;5.35;2.75;;;;;;;5.78;94.73;101679.84;6000487;28;20026;-66
2022/10/20 02:36:37;;;;;;;7.18;2.53;;;;;;;5.67;95.09;101676.16;6001796;28;20035;-66
2022/10/20 02:39:32;;;;;;;5.15;2.90;;;;;;;5.48;95.32;101659.78;6001265;28;20428;-66
2022/10/20 02:42:28;;;;;;;7.63;3.17;;;;;;;5.38;95.92;101651.59;6000876;28;20027;-66
2022/10/20 02:45:23;;;;;;;6.00;2.83;;;;;;;5.32;96.80;101665.09;6000839;28;20140;-66
2022/10/20 02:48:18;;;;;;;7.30;2.70;;;;;;;5.33;97.11;101674.66;6001835;28;20041;-66
2022/10/20 02:51:16;;;;;;;6.93;2.27;;;;;;;5.17;97.69;101681.72;6000114;28;20274;-66
2022/10/20 02:54:11;;;;;;;6.55;2.72;;;;;;;5.07;98.40;101670.06;6000478;28;20027;-66
2022/10/20 02:57:06;;;;;;;6.07;3.00;;;;;;;5.02;98.55;101656.34;6001185;28;20042;-66
2022/10/20 03:00:03;;;;;;;6.53;3.30;;;;;;;4.98;99.32;101649.53;6000713;28;20649;-66
2022/10/20 03:02:59;;;;;;;7.78;3.65;;;;;;;4.89;99.44;101642.19;6000463;28;20068;-66
2022/10/20 03:05:54;;;;;;;10.40;3.20;;;;;;;4.98;100.00;101642.50;6000821;28;20035;-66
2022/10/20 03:08:49;;;;;;;10.43;3.17;;;;;;;4.87;99.68;101625.66;5999464;28;20039;-66
2022/10/20 03:11:45;;;;;;;7.43;3.17;;;;;;;4.99;99.84;101631.06;6000643;28;20058;-66
2022/10/20 03:14:41;;;;;;;8.63;3.70;;;;;;;4.99;100.00;101633.69;6000525;28;20266;-66
2022/10/20 03:17:36;;;;;;;8.10;4.15;;;;;;;5.02;99.36;101630.06;6000722;28;20286;-66
2022/10/20 03:20:32;;;;;;;5.80;3.10;;;;;;;4.94;99.58;101613.88;6000238;28;20062;-65
2022/10/20 03:23:28;;;;;;;5.10;2.53;;;;;;;5.06;99.56;101626.28;6000346;28;20023;-66
2022/10/20 03:26:23;;;;;;;9.50;3.00;;;;;;;5.08;99.58;101621.81;6000866;28;20042;-66
2022/10/20 03:29:18;;;;;;;9.30;3.67;;;;;;;5.13;99.29;101617.13;6000512;28;20033;-66
2022/10/20 03:32:13;;;;;;;6.60;3.33;;;;;;;4.99;99.31;101594.28;6000045;28;20587;-66
2022/10/20 03:35:09;;;;;;;6.87;2.70;;;;;;;5.12;98.51;101610.19;6000052;28;20565;-67
2022/10/20 03:38:04;;;;;;;5.07;2.50;;;;;;;5.11;98.44;101613.75;6000299;28;20482;-66
2022/10/20 03:41:00;;;;;;;8.03;3.40;;;;;;;4.97;99.28;101606.66;5999838;28;20489;-66
2022/10/20 03:43:55;;;;;;;10.50;3.47;;;;;;;5.05;98.66;101603.59;5999616;28;20031;-66
2022/10/20 03:46:50;;;;;;;7.10;2.97;;;;;;;5.06;98.76;101606.13;6000008;28;20357;-65
2022/10/20 03:49:45;;;;;;;8.10;3.00;;;;;;;4.97;99.07;101585.66;6000051;28;20027;-67
2022/10/20 03:52:41;;;;;;;7.63;2.90;;;;;;;5.18;98.89;101588.78;5998981;28;20030;-65
2022/10/20 03:55:37;;;;;;;6.80;3.00;;;;;;;5.27;98.19;101585.63;5998814;28;20482;-66
2022/10/20 03:58:32;;;;;;;5.95;2.25;;;;;;;5.29;97.16;101578.50;5999934;28;20045;-65
2022/10/20 04:01:31;;;;;;;6.10;2.90;;;;;;;5.36;97.34;101582.44;5999570;28;20042;-66
2022/10/20 04:04:26;;;;;;;7.43;2.90;;;;;;;5.43;96.67;101589.03;5998232;28;20382;-66
2022/10/20 04:07:21;;;;;;;6.57;2.57;;;;;;;5.44;96.58;101585.44;5999589;28;20054;-65
2022/10/20 04:10:17;;;;;;;10.03;3.40;;;;;;;5.32;96.34;101559.91;5998900;28;20667;-65
2022/10/20 04:13:12;;;;;;;6.45;2.53;;;;;;;5.39;97.17;101558.59;5999219;28;20489;-65
2022/10/20 04:16:07;;;;;;;4.43;2.73;;;;;;;5.41;96.81;101575.13;5999449;28;20031;-65
2022/10/20 04:19:03;;;;;;;5.80;2.40;;;;;;;5.25;96.74;101569.06;5998962;28;20035;-65
2022/10/20 04:21:59;;;;;;;8.63;3.10;;;;;;;5.27;97.88;101557.53;5998160;28;20529;-65
2022/10/20 04:24:54;;;;;;;7.10;3.08;;;;;;;5.35;97.09;101551.84;5999076;28;20137;-65
2022/10/20 04:27:50;;;;;;;7.23;2.27;;;;;;;5.37;97.55;101560.47;5999257;28;20039;-65
2022/10/20 04:30:46;;;;;;;5.70;3.00;;;;;;;5.38;98.00;101554.28;5998600;28;20023;-65
2022/10/20 04:33:41;;;;;;;7.40;2.97;;;;;;;5.29;97.62;101549.56;5999126;28;20470;-65
2022/10/20 04:36:36;;;;;;;7.60;2.70;;;;;;;5.32;97.57;101557.28;5998846;28;20077;-65
2022/10/20 04:39:32;;;;;;;6.10;2.77;;;;;;;5.26;98.26;101540.09;5999265;28;20485;-65
2022/10/20 04:42:27;;;;;;;8.03;3.00;;;;;;;5.29;98.01;101536.41;5997535;28;20030;-66
2022/10/20 04:45:22;;;;;;;6.83;3.07;;;;;;;5.29;98.07;101539.06;5999026;28;20050;-65
2022/10/20 04:48:18;;;;;;;9.60;3.00;;;;;;;5.30;98.50;101514.44;5998729;28;20038;-66
2022/10/20 04:51:15;;;;;;;8.80;3.05;;;;;;;5.34;98.48;101510.69;5998029;28;20066;-66
2022/10/20 04:54:10;;;;;;;7.15;2.45;;;;;;;5.42;98.46;101513.69;5998218;28;20042;-66
2022/10/20 04:57:05;;;;;;;5.63;2.33;;;;;;;5.48;98.12;101486.19;5997876;28;20039;-65
2022/10/20 05:00:01;;;;;;;6.90;2.85;;;;;;;5.54;98.12;101491.91;5998854;28;20101;-66
2022/10/20 05:02:56;;;;;;;7.00;2.60;;;;;;;5.58;97.43;101477.63;5998005;28;20019;-65
2022/10/20 05:05:51;;;;;;;5.00;2.43;;;;;;;5.72;97.35;101474.97;5998625;28;20051;-65
2022/10/20 05:08:50;;;;;;;5.40;2.60;;;;;;;5.75;97.10;101468.66;5998801;28;20494;-65
2022/10/20 05:11:45;;;;;;;8.20;2.67;;;;;;;5.67;96.34;101453.38;5998008;28;20298;-65
2022/10/20 05:14:40;;;;;;;5.60;2.77;;;;;;;5.76;96.69;101467.75;6003710;28;20034;-65
2022/10/20 05:17:36;;;;;;;7.87;2.83;;;;;;;5.72;97.06;101453.94;6002939;28;20290;-65
2022/10/20 05:20:31;;;;;;;4.83;2.70;;;;;;;5.83;96.17;101467.25;6002621;28;20097;-65
2022/10/20 05:23:26;;;;;;;13.87;2.90;;;;;;;5.75;96.24;101447.63;6003293;28;20041;-66
2022/10/20 05:26:22;;;;;;;5.97;3.00;;;;;;;5.91;95.95;101475.53;6003169;28;20035;-65
2022/10/20 05:29:17;;;;;;;5.82;2.80;;;;;;;5.89;95.44;101466.91;6003310;28;20026;-65
2022/10/20 05:32:13;;;;;;;7.40;2.83;;;;;;;5.87;95.32;101467.94;6002631;28;20113;-66
2022/10/20 05:35:08;;;;;;;7.70;3.80;;;;;;;5.97;95.69;101469.03;6003434;28;20078;-67
2022/10/20 05:38:03;;;;;;;8.27;3.05;;;;;;;6.03;95.17;101463.38;6003425;28;20450;-66
2022/10/20 05:41:13;;;;;;;5.67;3.20;;;;;;;5.95;95.11;101469.13;6002677;28;20038;-65
2022/10/20 05:44:11;;;;;;;7.22;3.60;;;;;;;5.81;95.28;101453.34;6002016;28;20682;-67
2022/10/20 05:47:06;;;;;;;6.18;3.08;;;;;;;5.85;96.03;101459.28;6001436;28;20031;-67
2022/10/20 05:50:02;;;;;;;7.83;3.23;;;;;;;5.91;95.82;101464.16;6001742;28;20031;-66
2022/10/20 05:52:57;;;;;;;7.78;3.38;;;;;;;5.80;95.75;101451.66;6002342;28;20114;-66
2022/10/20 05:55:53;;;;;;;6.37;3.67;;;;;;;5.83;95.72;101451.47;6002133;28;20032;-66
2022/10/20 05:58:48;;;;;;;6.30;3.30;;;;;;;5.96;95.93;101452.41;5997999;28;20782;-67
2022/10/20 06:01:46;;;;;;;6.07;3.10;;;;;;;5.92;95.52;101440.34;6000206;28;20030;-67
2022/10/20 06:04:42;;;;;;;10.35;3.60;;;;;;;6.06;95.84;101462.34;6000971;28;20031;-66
2022/10/20 06:07:37;;;;;;;7.30;3.30;;;;;;;6.09;95.11;101467.41;6000796;28;20101;-67
2022/10/20 06:10:32;;;;;;;8.93;3.70;;;;;;;5.97;95.66;101451.47;5999140;28;20553;-67
2022/10/20 06:13:29;;;;;;;7.27;3.83;;;;;;;6.01;95.96;101459.16;6001912;28;20277;-67
2022/10/20 06:16:25;;;;;;;11.15;3.80;;;;;;;5.96;95.54;101446.28;6002181;28;20035;-67
2022/10/20 06:19:22;;;;;;;10.32;4.25;;;;;;;6.05;95.51;101455.38;6002375;28;20031;-67
2022/10/20 06:22:17;;;;;;;8.45;3.95;;;;;;;6.06;95.22;101452.63;6001190;28;20549;-67
2022/10/20 06:25:12;;;;;;;10.27;3.80;;;;;;;6.01;95.41;101440.75;6000450;28;20070;-67
2022/10/20 06:28:07;;;;;;;8.97;3.60;;;;;;;6.02;95.13;101440.63;6001074;28;20031;-66
2022/10/20 06:31:14;;;;;;;9.20;4.90;;;;;;;6.08;95.07;101447.28;6001597;28;20034;-66
2022/10/20 06:34:12;;;;;;;9.90;4.65;;;;;;;6.07;95.15;101435.91;6002125;28;20030;-66
2022/10/20 06:37:08;;;;;;;10.77;4.95;;;;;;;6.15;94.30;101441.50;6002016;28;20035;-67
2022/10/20 06:40:04;;;;;;;9.15;3.95;;;;;;;6.14;93.79;101439.00;6001331;28;20042;-66
2022/10/20 06:42:59;;;;;;;8.95;3.67;;;;;;;6.17;93.97;101439.63;5999571;28;20051;-66
2022/10/20 06:46:08;;;;;;;9.50;4.53;;;;;;;6.18;93.73;101445.72;6002013;28;20031;-67
2022/10/20 06:49:05;;;;;;;8.75;4.18;;;;;;;6.22;93.45;101442.81;6001626;28;20273;-66
2022/10/20 06:52:00;;;;;;;10.52;4.20;;;;;;;6.34;92.87;101454.31;6001177;28;20035;-66
2022/10/20 06:54:56;;;;;;;8.77;4.10;;;;;;;6.33;92.50;101442.13;6001282;28;20046;-66
2022/10/20 06:57:51;;;;;;;7.57;3.97;;;;;;;6.42;92.50;101455.50;6000326;28;20062;-66
2022/10/20 07:00:47;;;;;;;8.23;4.50;;;;;;;6.37;92.44;101441.81;6000861;28;20442;-66
2022/10/20 07:03:45;;;;;;;7.70;4.70;;;;;;;6.45;92.08;101455.31;6000895;28;20046;-66
2022/10/20 07:06:43;;;;;;;9.00;4.82;;;;;;;6.38;91.88;101442.66;6001224;28;20390;-67
2022/10/20 07:09:38;;;;;;;8.75;4.57;;;;;;;6.47;91.81;101452.56;6001475;28;20522;-66
2022/10/20 07:12:33;;;;;;;11.73;4.90;;;;;;;6.49;91.98;101455.97;6000294;28;20037;-66
2022/10/20 07:15:29;;;;;;;8.90;4.67;;;;;;;6.58;91.52;101445.63;5990327;28;20031;-66
2022/10/20 07:18:25;;;;;;;9.23;4.40;;;;;;;6.59;91.79;101449.13;5999708;28;20150;-66
2022/10/20 07:21:23;;;;;;;12.88;4.45;;;;;;;6.62;91.63;101440.16;6000234;28;20109;-67
2022/10/20 07:24:18;;;;;;;8.30;4.10;;;;;;;6.68;90.82;101435.34;6000554;28;20133;-67
2022/10/20 07:27:13;;;;;;;9.17;3.93;;;;;;;6.73;90.44;101432.38;6000392;28;20459;-67
2022/10/20 07:30:10;;;;;;;9.30;4.30;;;;;;;6.83;90.17;101428.16;5999966;28;20026;-66
2022/10/20 07:33:06;;;;;;;10.07;4.93;;;;;;;6.91;89.70;101429.34;5992982;28;20388;-67
2022/10/20 07:36:10;;;;;;;13.68;5.82;;;;;;;6.97;89.12;101431.56;6000384;28;20370;-66
2022/10/20 07:39:06;;;;;;;7.22;4.07;;;;;;;7.06;88.48;101406.34;6000358;28;20031;-67
2022/10/20 07:42:01;;;;;;;10.82;5.53;;;;;;;7.09;87.86;101406.16;5999853;28;20062;-67
2022/10/20 07:44:56;;;;;;;8.87;4.47;;;;;;;7.23;87.99;101400.72;6000219;28;20070;-67
2022/10/20 07:47:52;;;;;;;10.73;4.37;;;;;;;7.33;87.16;101396.50;5999031;28;20074;-67
2022/10/20 07:50:47;;;;;;;11.37;5.67;;;;;;;7.36;86.88;101384.91;5999372;28;20033;-67
2022/10/20 07:53:43;;;;;;;8.30;4.33;;;;;;;7.51;86.13;101376.72;5999483;28;20401;-67
2022/10/20 07:56:40;;;;;;;8.68;4.07;;;;;;;7.63;86.08;101390.84;5999857;28;20035;-66
2022/10/20 07:59:36;;;;;;;9.10;4.07;;;;;;;7.77;85.45;101385.41;6000201;28;20034;-67
2022/10/20 08:02:31;;;;;;;10.17;4.57;;;;;;;7.88;85.12;101377.53;5999356;28;20098;-66
2022/10/20 08:05:28;;;;;;;10.87;4.50;;;;;;;7.83;84.61;101366.47;5999168;28;20066;-66
2022/10/20 08:08:23;;;;;;;9.55;4.82;;;;;;;8.06;84.42;101380.63;5999507;28;20662;-67
2022/10/20 08:11:19;;;;;;;10.45;4.75;;;;;;;8.09;83.70;101373.31;5999324;28;20034;-67
2022/10/20 08:14:14;;;;;;;9.15;4.28;;;;;;;8.07;83.29;101366.47;5999747;28;20081;-67
2022/10/20 08:17:10;;;;;;;10.27;5.00;;;;;;;8.34;83.06;101354.69;5999446;28;20027;-67
2022/10/20 08:20:05;;;;;;;14.27;4.73;;;;;;;8.41;81.97;101367.44;5998876;28;20142;-67
2022/10/20 08:23:01;;;;;;;10.75;4.38;;;;;;;8.37;82.24;101350.97;5998543;28;20039;-67
2022/10/20 08:25:56;;;;;;;8.27;4.03;;;;;;;8.42;82.14;101354.13;5999804;28;20037;-67
2022/10/20 08:28:53;;;;;;;9.93;4.57;;;;;;;8.61;81.39;101354.41;5999455;28;20278;-67
2022/10/20 08:31:48;;;;;;;7.75;3.50;;;;;;;8.76;81.22;101349.72;5998865;28;20035;-67
2022/10/20 08:34:45;;;;;;;7.27;4.17;;;;;;;8.79;80.03;101349.50;5999606;28;20045;-67
2022/10/20 08:37:40;;;;;;;11.48;4.07;;;;;;;8.94;80.11;101359.72;5990521;28;20097;-67
2022/10/20 08:40:36;;;;;;;7.37;3.80;;;;;;;9.00;79.23;101363.69;5993871;28;20467;-67
2022/10/20 08:43:35;;;;;;;7.60;3.97;;;;;;;9.04;79.22;101365.13;5997776;28;20062;-67
2022/10/20 08:46:36;;;;;;;6.75;3.67;;;;;;;9.00;79.87;101358.38;5997087;28;20041;-67
2022/10/20 08:49:32;;;;;;;10.43;3.78;;;;;;;9.14;78.72;101359.94;5999108;28;20034;-67
2022/10/20 08:52:28;;;;;;;9.32;3.83;;;;;;;9.15;78.75;101353.72;5998304;28;20066;-67
2022/10/20 08:55:29;;;;;;;6.72;4.00;;;;;;;9.07;78.47;101348.19;5994087;28;20682;-67
2022/10/20 08:58:24;;;;;;;7.30;4.30;;;;;;;9.18;78.42;101346.38;5998462;28;20114;-67
2022/10/20 09:01:26;;;;;;;8.00;4.40;;;;;;;9.36;78.20;101363.44;5998120;28;20078;-67
2022/10/20 09:04:41;;;;;;;8.23;4.38;;;;;;;9.15;78.84;101343.97;5998508;28;20369;-67
2022/10/20 09:07:37;;;;;;;9.93;3.70;;;;;;;9.25;78.85;101350.22;5999098;28;20113;-67
2022/10/20 09:10:36;;;;;;;9.95;4.15;;;;;;;9.22;78.67;101318.69;5991333;28;20047;-67
2022/10/20 09:13:31;;;;;;;7.97;3.83;;;;;;;9.30;78.08;101318.06;5996359;28;20481;-67
2022/10/20 09:16:29;;;;;;;10.60;4.97;;;;;;;9.30;77.88;101303.03;5998408;28;20034;-67
2022/10/20 09:19:26;;;;;;;6.93;4.38;;;;;;;9.37;77.60;101304.25;5995620;28;20062;-67
2022/10/20 09:22:21;;;;;;;8.30;4.45;;;;;;;9.28;78.20;101293.56;5988157;28;20026;-67
2022/10/20 09:25:21;;;;;;;8.43;4.03;;;;;;;9.52;78.29;101310.94;5998010;28;20078;-67
2022/10/20 09:28:27;;;;;;;8.32;4.20;;;;;;;9.95;77.50;101299.44;5993163;28;20368;-66
2022/10/20 09:31:34;;;;;;;10.35;4.38;;;;;;;9.98;75.72;101305.34;5997638;28;20034;-67
2022/10/20 09:34:31;;;;;;;7.07;4.07;;;;;;;9.92;76.48;101274.06;5998711;28;20034;-67
2022/10/20 09:37:27;;;;;;;7.00;3.83;;;;;;;9.90;76.51;101285.75;5998637;28;20038;-67
2022/10/20 09:40:23;;;;;;;10.23;4.33;;;;;;;9.86;76.34;101289.63;5996451;28;20027;-67
2022/10/20 09:43:18;;;;;;;9.77;5.97;;;;;;;9.91;76.51;101304.19;5994187;28;20055;-67
2022/10/20 09:46:17;;;;;;;7.65;4.32;;;;;;;9.61;77.09;101292.63;5996610;28;20489;-67
2022/10/20 09:49:33;;;;;;;9.10;4.18;;;;;;;9.79;78.30;101307.00;5998055;28;20030;-67
2022/10/20 09:52:32;;;;;;;6.60;3.45;;;;;;;10.02;76.91;101313.88;5996234;28;20518;-66
2022/10/20 09:55:30;;;;;;;9.65;4.32;;;;;;;10.24;77.26;101311.16;5995132;28;20031;-66
2022/10/20 09:58:34;;;;;;;7.53;4.07;;;;;;;10.56;75.75;101295.16;5998927;28;20031;-67
2022/10/20 10:01:29;;;;;;;10.23;3.97;;;;;;;10.98;74.10;101301.22;5999471;28;20045;-66
2022/10/20 10:04:37;;;;;;;7.80;4.43;;;;;;;10.53;75.32;101296.25;6002181;28;20657;-66
2022/10/20 10:07:32;;;;;;;8.15;4.35;;;;;;;10.36;76.57;101283.59;6001933;28;20062;-66
2022/10/20 10:10:30;;;;;;;10.57;5.55;;;;;;;9.94;77.84;101284.53;6001677;28;20027;-67
2022/10/20 10:13:28;;;;;;;9.75;5.43;;;;;;;9.95;78.33;101286.22;6001916;28;20035;-67
2022/10/20 10:16:24;;;;;;;10.68;5.90;;;;;;;10.15;78.26;101291.56;5995757;28;20178;-67
2022/10/20 10:19:24;;;;;;;9.15;4.57;;;;;;;10.61;77.43;101274.38;6006695;28;20486;-67
2022/10/20 10:22:19;;;;;;;9.27;4.97;;;;;;;10.59;77.00;101252.47;6001675;28;20027;-66
2022/10/20 10:25:25;;;;;;;7.15;4.43;;;;;;;10.66;76.92;101243.00;6000769;28;20438;-66
2022/10/20 10:28:46;;;;;;;38.30;15.55;;;;;;;10.79;76.19;101242.78;6000780;28;20491;-67
2022/10/20 10:31:55;;;;;;;13.00;7.28;;;;;;;10.67;76.64;101234.06;5998162;28;20043;-67
2022/10/20 10:35:00;;;;;;;12.43;6.80;;;;;;;10.71;76.97;101215.09;5993187;28;20038;-66
2022/10/20 10:37:56;;;;;;;7.63;4.53;;;;;;;11.00;76.21;101215.19;6002127;28;20034;-67
2022/10/20 10:41:11;;;;;;;9.50;4.75;;;;;;;11.07;75.48;101212.81;5999839;28;20037;-67
2022/10/20 10:44:16;;;;;;;9.77;5.50;;;;;;;10.96;75.88;101212.94;6001947;28;20041;-67
2022/10/20 10:47:31;;;;;;;12.77;4.47;;;;;;;11.13;74.97;101199.00;6001963;28;20419;-67
2022/10/20 10:50:45;;;;;;;10.55;4.68;;;;;;;11.25;75.74;101208.53;5999310;28;20034;-67
2022/10/20 10:54:15;;;;;;;10.50;5.03;;;;;;;11.23;75.56;101194.53;6001821;28;20466;-67
2022/10/20 10:57:28;;;;;;;11.77;5.10;;;;;;;11.28;75.32;101176.38;5991863;28;20050;-67
2022/10/20 11:00:52;;;;;;;8.80;5.10;;;;;;;11.08;76.27;101180.00;5999533;28;20382;-67
2022/10/20 11:03:55;;;;;;;7.32;4.70;;;;;;;10.96;76.75;101171.31;6001024;28;20037;-67
2022/10/20 11:07:20;;;;;;;8.40;4.57;;;;;;;11.06;76.12;101176.66;5997991;28;20038;-67
2022/10/20 11:10:27;;;;;;;13.20;6.28;;;;;;;10.88;77.56;101171.16;5998971;28;20037;-67
2022/10/20 11:13:35;;;;;;;8.65;5.63;;;;;;;10.85;77.42;101133.44;6001119;28;20363;-67
2022/10/20 11:16:36;;;;;;;10.50;5.10;;;;;;;11.11;77.27;101147.88;6000165;28;20038;-67
2022/10/20 11:19:49;;;;;;;11.85;6.05;;;;;;;11.28;76.79;101144.50;6000982;28;20459;-66
2022/10/20 11:22:54;;;;;;;9.18;5.10;;;;;;;11.35;76.05;101143.00;5998523;28;20031;-67
2022/10/20 11:26:00;;;;;;;9.38;4.13;;;;;;;11.47;75.86;101127.75;5996597;28;20043;-66
2022/10/20 11:28:56;;;;;;;8.35;4.03;;;;;;;11.67;75.49;101113.44;5999498;28;20034;-67
2022/10/20 11:32:25;;;;;;;8.50;4.30;;;;;;;11.76;75.79;101126.75;6000371;28;20031;-66
2022/10/20 11:35:59;;;;;;;10.82;5.60;;;;;;;11.80;73.21;101124.63;5996488;28;20073;-67
2022/10/20 11:38:55;;;;;;;9.63;4.93;;;;;;;11.51;74.35;101113.19;5999319;28;20113;-67
2022/10/20 11:41:53;;;;;;;11.70;5.22;;;;;;;11.64;74.77;101129.66;5992602;28;20030;-67
2022/10/20 11:44:48;;;;;;;8.00;3.97;;;;;;;11.83;73.18;101108.41;5999057;28;20471;-67
2022/10/20 11:47:45;;;;;;;9.68;5.55;;;;;;;11.71;72.41;101096.28;6000604;28;20038;-67
2022/10/20 11:50:41;;;;;;;7.35;4.20;;;;;;;11.86;72.64;101093.00;5998647;28;20082;-66
2022/10/20 11:54:06;;;;;;;10.43;4.57;;;;;;;11.99;71.19;101081.19;5998879;28;20031;-67
2022/10/20 11:57:10;;;;;;;7.45;4.63;;;;;;;12.07;70.42;101062.69;5995594;28;20030;-67
2022/10/20 12:00:14;;;;;;;11.98;4.70;;;;;;;12.17;70.48;101076.81;5999611;28;20359;-67
2022/10/20 12:03:33;;;;;;;7.82;4.57;;;;;;;12.23;69.96;101079.69;6000188;28;20035;-67
2022/10/20 12:06:53;;;;;;;7.30;4.40;;;;;;;12.17;68.83;101060.84;6000051;28;20466;-66
2022/10/20 12:10:02;;;;;;;10.27;3.85;;;;;;;12.21;68.60;101072.84;5998577;28;20133;-67
2022/10/20 12:13:02;;;;;;;7.47;3.70;;;;;;;12.47;68.29;101071.19;5994543;28;20039;-67
2022/10/20 12:15:57;;;;;;;4.80;2.53;;;;;;;12.61;67.19;101046.69;5990626;28;20034;-67
2022/10/20 12:19:14;;;;;;;6.37;3.63;;;;;;;12.63;67.28;101046.56;5999801;28;20033;-67
2022/10/20 12:22:12;;;;;;;7.65;3.63;;;;;;;12.55;66.72;101047.34;5999448;28;20133;-67
2022/10/20 12:25:07;;;;;;;8.93;4.25;;;;;;;12.53;66.86;101066.09;5999533;28;20035;-67
2022/10/20 12:28:18;;;;;;;7.27;3.60;;;;;;;12.64;66.45;101067.69;5999660;28;20506;-67
2022/10/20 12:31:13;;;;;;;9.95;3.53;;;;;;;12.71;66.56;101050.16;5989871;28;20390;-67
2022/10/20 12:34:21;;;;;;;4.80;3.10;;;;;;;12.78;65.81;101045.88;5998269;28;20042;-67
2022/10/20 12:37:18;;;;;;;5.95;3.38;;;;;;;12.88;66.59;101043.97;5997935;28;20634;-67
2022/10/20 12:40:14;;;;;;;8.60;3.75;;;;;;;12.85;67.12;101054.97;5998803;28;20568;-67
2022/10/20 12:43:31;;;;;;;19.80;9.10;;;;;;;12.86;67.51;101040.63;5999212;28;20039;-67
2022/10/20 12:46:30;;;;;;;5.55;2.75;;;;;;;13.08;65.85;101034.88;5986146;28;20122;-67
2022/10/20 12:49:32;;;;;;;6.43;2.70;;;;;;;13.13;65.80;101049.56;5997380;28;20046;-67
2022/10/20 12:52:31;;;;;;;5.97;3.05;;;;;;;13.07;65.92;101033.19;5998782;28;20117;-67
2022/10/20 12:55:30;;;;;;;6.72;3.53;;;;;;;13.14;65.83;101022.78;5999198;28;20469;-67
2022/10/20 12:58:36;;;;;;;6.25;2.95;;;;;;;13.02;65.82;101010.66;5999056;28;20061;-67
2022/10/20 13:02:09;;;;;;;6.60;3.95;;;;;;;13.05;66.96;101029.81;5998551;28;20031;-67
2022/10/20 13:05:05;;;;;;;7.28;3.35;;;;;;;13.15;65.83;101018.28;5988813;28;20045;-67
2022/10/20 13:08:03;;;;;;;6.70;3.13;;;;;;;12.91;66.21;101011.72;5999071;28;20471;-67
2022/10/20 13:11:43;;;;;;;6.88;3.65;;;;;;;13.08;66.89;101008.25;5997202;28;20438;-67
2022/10/20 13:14:46;;;;;;;7.32;3.38;;;;;;;13.09;65.74;101020.59;5998722;28;20678;-67
2022/10/20 13:18:11;;;;;;;5.85;3.38;;;;;;;12.98;66.09;101038.59;5999002;28;20478;-67
2022/10/20 13:21:18;;;;;;;5.88;3.00;;;;;;;13.00;66.43;101031.28;5985357;28;20043;-67
2022/10/20 13:24:29;;;;;;;6.72;3.05;;;;;;;12.90;66.69;101028.72;5998817;28;20023;-67
2022/10/20 13:27:27;;;;;;;7.65;3.97;;;;;;;12.93;66.79;101031.06;5998548;28;20505;-67
2022/10/20 13:30:23;;;;;;;8.73;3.50;;;;;;;12.95;67.52;101042.41;5998341;28;20041;-67
2022/10/20 13:33:47;;;;;;;6.57;3.70;;;;;;;12.85;67.99;101038.97;5999306;28;20034;-67
2022/10/20 13:37:04;;;;;;;7.85;3.30;;;;;;;12.70;69.00;101029.00;5983277;28;20039;-67
2022/10/20 13:40:18;;;;;;;6.30;3.70;;;;;;;12.63;69.68;101028.78;5996241;28;20073;-67
2022/10/20 13:43:47;;;;;;;8.18;4.35;;;;;;;12.52;70.27;101005.06;6002954;28;20043;-67
2022/10/20 13:47:02;;;;;;;9.02;4.18;;;;;;;12.54;70.79;101021.69;6003332;28;20038;-67
2022/10/20 13:50:06;;;;;;;10.85;4.82;;;;;;;12.48;70.99;101023.16;6002931;28;20046;-67
2022/10/20 13:53:08;;;;;;;11.23;4.70;;;;;;;12.43;70.74;101013.94;6001295;28;20034;-67
2022/10/20 13:56:15;;;;;;;8.30;4.65;;;;;;;12.49;71.50;101016.00;6001536;28;20486;-67
2022/10/20 13:59:13;;;;;;;7.72;4.18;;;;;;;12.42;71.73;101009.59;6003322;28;20483;-67
2022/10/20 14:02:26;;;;;;;9.38;4.18;;;;;;;12.39;72.02;100996.63;6002247;28;20038;-67
2022/10/20 14:05:22;;;;;;;9.10;5.55;;;;;;;12.31;71.87;100985.91;6002987;28;20035;-67